Walkers Mill, Texas
Current Conditions -  °F | °C
As of 5:55 PM on Thursday 18 Dec 2014 (Local Time) from KASL Reporting Station
Overcast Overcast  
Wind Chill: 51°   Ceiling: 700
Heat Index: 51°   Visibility: 7mi
Dew Point: 48°   Wind: 0mph
Humidity: 89%   Direction: NA
Pressure: 30.15"   Gusts: NA
Location:  32.4986°N, 94.513°W
Report Text: KASL 182355Z AUTO 00000KT 7SM OVC007 11/09 A3015 RMK AO1 T01050087 10118 20104
Loading
Personal Weather Stations






























Interactive Weather Map New forecast layout! Learn more

10-Day Weather Forecast

Advertisements
Track Severe Weather on mobile